sensor_id;sensor_type;location;lat;lon;timestamp;pressure;altitude;pressure_sealevel;temperature;humidity
69316;BME280;56445;43.552;5.034;2023-06-14T05:01:17;100825.75;;;34.63;29.95
69316;BME280;56445;43.552;5.034;2023-06-14T05:03:44;100838.50;;;34.80;29.89
69316;BME280;56445;43.552;5.034;2023-06-14T05:06:11;100832.03;;;34.76;29.81
69316;BME280;56445;43.552;5.034;2023-06-14T05:08:38;100851.94;;;34.94;29.91
69316;BME280;56445;43.552;5.034;2023-06-14T05:11:04;100823.28;;;34.81;29.92
69316;BME280;56445;43.552;5.034;2023-06-14T05:13:31;100837.50;;;34.92;29.92
69316;BME280;56445;43.552;5.034;2023-06-14T05:15:58;100843.47;;;34.90;29.75
69316;BME280;56445;43.552;5.034;2023-06-14T05:18:25;100865.41;;;35.08;30.01
69316;BME280;56445;43.552;5.034;2023-06-14T05:20:51;100829.91;;;34.92;29.81
69316;BME280;56445;43.552;5.034;2023-06-14T05:23:19;100860.66;;;35.12;29.61
69316;BME280;56445;43.552;5.034;2023-06-14T05:25:46;100832.41;;;34.98;29.68
69316;BME280;56445;43.552;5.034;2023-06-14T05:28:13;100830.31;;;34.94;29.85
69316;BME280;56445;43.552;5.034;2023-06-14T05:30:39;100861.56;;;35.16;29.80
69316;BME280;56445;43.552;5.034;2023-06-14T05:33:06;100842.91;;;35.04;29.79
69316;BME280;56445;43.552;5.034;2023-06-14T05:35:32;100847.81;;;35.11;29.89
69316;BME280;56445;43.552;5.034;2023-06-14T05:37:59;100847.53;;;35.16;29.76
69316;BME280;56445;43.552;5.034;2023-06-14T05:40:26;100869.03;;;35.31;29.88
69316;BME280;56445;43.552;5.034;2023-06-14T05:42:52;100844.44;;;35.21;29.88
69316;BME280;56445;43.552;5.034;2023-06-14T05:45:19;100852.44;;;35.23;29.58
69316;BME280;56445;43.552;5.034;2023-06-14T05:47:45;100855.31;;;35.26;29.74
69316;BME280;56445;43.552;5.034;2023-06-14T05:50:12;100854.94;;;35.28;29.89
69316;BME280;56445;43.552;5.034;2023-06-14T05:52:38;100867.16;;;35.39;30.04
69316;BME280;56445;43.552;5.034;2023-06-14T05:55:05;100878.50;;;35.50;29.89
69316;BME280;56445;43.552;5.034;2023-06-14T05:57:32;100849.47;;;35.39;29.97
69316;BME280;56445;43.552;5.034;2023-06-14T05:59:58;100838.69;;;35.41;29.78
69316;BME280;56445;43.552;5.034;2023-06-14T06:02:25;100843.56;;;35.44;29.91
69316;BME280;56445;43.552;5.034;2023-06-14T06:04:52;100869.88;;;35.62;29.96
69316;BME280;56445;43.552;5.034;2023-06-14T06:07:19;100844.03;;;35.49;29.94
69316;BME280;56445;43.552;5.034;2023-06-14T06:09:46;100847.72;;;35.53;29.83
69316;BME280;56445;43.552;5.034;2023-06-14T06:12:14;100859.53;;;35.66;30.00
69316;BME280;56445;43.552;5.034;2023-06-14T06:14:41;100873.63;;;35.70;29.77
69316;BME280;56445;43.552;5.034;2023-06-14T06:17:08;100849.06;;;35.63;29.88
69316;BME280;56445;43.552;5.034;2023-06-14T06:19:36;100839.28;;;35.53;29.93
69316;BME280;56445;43.552;5.034;2023-06-14T06:22:03;100875.75;;;35.77;29.80
69316;BME280;56445;43.552;5.034;2023-06-14T06:24:33;100872.94;;;35.77;29.80
69316;BME280;56445;43.552;5.034;2023-06-14T06:27:00;100845.81;;;35.61;29.90
69316;BME280;56445;43.552;5.034;2023-06-14T06:29:27;100872.97;;;35.80;29.53
69316;BME280;56445;43.552;5.034;2023-06-14T06:32:23;100870.22;;;35.84;29.72
69316;BME280;56445;43.552;5.034;2023-06-14T06:35:45;100848.41;;;35.73;30.01
69316;BME280;56445;43.552;5.034;2023-06-14T06:38:44;100848.84;;;35.76;29.83
69316;BME280;56445;43.552;5.034;2023-06-14T06:41:37;100856.94;;;35.81;30.00
69316;BME280;56445;43.552;5.034;2023-06-14T06:52:37;100883.25;;;35.99;30.08
69316;BME280;56445;43.552;5.034;2023-06-14T06:55:37;100879.78;;;36.09;29.96
69316;BME280;56445;43.552;5.034;2023-06-14T06:58:23;100858.09;;;36.06;29.92
69316;BME280;56445;43.552;5.034;2023-06-14T07:01:08;100878.41;;;36.26;30.21
69316;BME280;56445;43.552;5.034;2023-06-14T07:04:27;100873.69;;;36.34;30.12
69316;BME280;56445;43.552;5.034;2023-06-14T07:44:23;100890.63;;;37.16;29.77
69316;BME280;56445;43.552;5.034;2023-06-14T07:54:55;100915.63;;;37.28;29.55
69316;BME280;56445;43.552;5.034;2023-06-14T08:13:44;100889.09;;;37.26;29.63
69316;BME280;56445;43.552;5.034;2023-06-14T08:19:52;100910.22;;;37.57;29.94
69316;BME280;56445;43.552;5.034;2023-06-14T08:23:17;100904.69;;;37.64;30.16
69316;BME280;56445;43.552;5.034;2023-06-14T08:26:45;100907.13;;;37.69;29.52
69316;BME280;56445;43.552;5.034;2023-06-14T08:33:41;100882.16;;;37.68;29.74
69316;BME280;56445;43.552;5.034;2023-06-14T08:36:54;100913.69;;;37.88;29.74
69316;BME280;56445;43.552;5.034;2023-06-14T08:40:00;100918.53;;;37.95;30.08
69316;BME280;56445;43.552;5.034;2023-06-14T08:43:16;100917.75;;;37.98;29.46
69316;BME280;56445;43.552;5.034;2023-06-14T08:45:58;100928.25;;;38.04;30.06
69316;BME280;56445;43.552;5.034;2023-06-14T08:49:03;100919.06;;;38.15;29.40
69316;BME280;56445;43.552;5.034;2023-06-14T08:55:24;100922.75;;;38.26;29.44
69316;BME280;56445;43.552;5.034;2023-06-14T08:58:58;100927.59;;;38.33;29.85
69316;BME280;56445;43.552;5.034;2023-06-14T09:02:09;100898.19;;;38.30;29.69
69316;BME280;56445;43.552;5.034;2023-06-14T09:05:11;100931.31;;;38.55;29.62
69316;BME280;56445;43.552;5.034;2023-06-14T09:07:50;100930.13;;;38.59;29.92
69316;BME280;56445;43.552;5.034;2023-06-14T09:10:54;100909.97;;;38.54;29.50
69316;BME280;56445;43.552;5.034;2023-06-14T09:17:22;100918.50;;;38.75;29.52
69316;BME280;56445;43.552;5.034;2023-06-14T09:20:11;100923.75;;;38.87;29.61
69316;BME280;56445;43.552;5.034;2023-06-14T09:23:27;100922.97;;;38.91;29.56
69316;BME280;56445;43.552;5.034;2023-06-14T09:26:38;100926.19;;;39.00;29.20
69316;BME280;56445;43.552;5.034;2023-06-14T09:29:44;100929.44;;;39.02;29.63
69316;BME280;56445;43.552;5.034;2023-06-14T09:32:40;100924.59;;;39.06;29.31
69316;BME280;56445;43.552;5.034;2023-06-14T09:35:38;100931.03;;;39.10;29.41
69316;BME280;56445;43.552;5.034;2023-06-14T09:38:51;100923.00;;;39.16;29.20
69316;BME280;56445;43.552;5.034;2023-06-14T09:42:01;100921.38;;;39.25;29.36
69316;BME280;56445;43.552;5.034;2023-06-14T09:45:24;100921.38;;;39.33;29.48
69316;BME280;56445;43.552;5.034;2023-06-14T09:48:34;100929.47;;;39.34;29.59
69316;BME280;56445;43.552;5.034;2023-06-14T09:51:52;100925.03;;;39.44;29.46
69316;BME280;56445;43.552;5.034;2023-06-14T09:54:53;100922.59;;;39.53;29.41
69316;BME280;56445;43.552;5.034;2023-06-14T10:01:41;100919.75;;;39.71;29.38
69316;BME280;56445;43.552;5.034;2023-06-14T10:05:14;100939.50;;;39.93;29.54
69316;BME280;56445;43.552;5.034;2023-06-14T10:08:23;100929.38;;;40.06;29.37
69316;BME280;56445;43.552;5.034;2023-06-14T10:11:22;100914.84;;;40.04;29.41
69316;BME280;56445;43.552;5.034;2023-06-14T10:15:04;100899.84;;;40.21;29.18
69316;BME280;56445;43.552;5.034;2023-06-14T10:21:32;100918.69;;;40.50;29.53
69316;BME280;56445;43.552;5.034;2023-06-14T10:24:59;100908.16;;;40.57;29.15
69316;BME280;56445;43.552;5.034;2023-06-14T10:28:17;100916.94;;;40.77;29.03
69316;BME280;56445;43.552;5.034;2023-06-14T10:35:34;100916.91;;;40.85;29.49
69316;BME280;56445;43.552;5.034;2023-06-14T10:38:35;100922.56;;;40.85;29.46
69316;BME280;56445;43.552;5.034;2023-06-14T10:45:10;100907.97;;;40.90;29.28
69316;BME280;56445;43.552;5.034;2023-06-14T10:47:42;100904.75;;;40.88;29.17
69316;BME280;56445;43.552;5.034;2023-06-14T10:50:11;100903.16;;;40.83;29.35
69316;BME280;56445;43.552;5.034;2023-06-14T10:52:43;100904.75;;;40.88;29.22
69316;BME280;56445;43.552;5.034;2023-06-14T10:55:19;100882.94;;;40.88;29.08
69316;BME280;56445;43.552;5.034;2023-06-14T10:57:51;100889.22;;;41.10;29.07
69316;BME280;56445;43.552;5.034;2023-06-14T11:00:22;100891.50;;;41.30;29.19
69316;BME280;56445;43.552;5.034;2023-06-14T11:06:01;100905.03;;;41.49;29.10
69316;BME280;56445;43.552;5.034;2023-06-14T11:09:04;100908.41;;;41.78;28.81
69316;BME280;56445;43.552;5.034;2023-06-14T11:11:38;100904.13;;;42.05;28.93
69316;BME280;56445;43.552;5.034;2023-06-14T11:14:06;100892.63;;;42.15;28.81
69316;BME280;56445;43.552;5.034;2023-06-14T11:16:33;100890.50;;;42.23;28.81
69316;BME280;56445;43.552;5.034;2023-06-14T11:19:01;100892.00;;;42.31;29.23
69316;BME280;56445;43.552;5.034;2023-06-14T11:21:32;100914.50;;;42.46;29.21
69316;BME280;56445;43.552;5.034;2023-06-14T11:24:00;100912.09;;;42.44;28.95
69316;BME280;56445;43.552;5.034;2023-06-14T11:26:31;100890.09;;;42.25;29.13
69316;BME280;56445;43.552;5.034;2023-06-14T11:29:01;100912.31;;;42.26;28.98
69316;BME280;56445;43.552;5.034;2023-06-14T11:31:29;100881.81;;;42.07;28.67
69316;BME280;56445;43.552;5.034;2023-06-14T11:33:58;100900.38;;;42.11;28.91
69316;BME280;56445;43.552;5.034;2023-06-14T11:36:33;100891.97;;;42.00;28.75
69316;BME280;56445;43.552;5.034;2023-06-14T11:39:06;100911.78;;;42.04;28.96
69316;BME280;56445;43.552;5.034;2023-06-14T11:41:44;100907.00;;;41.97;28.95
69316;BME280;56445;43.552;5.034;2023-06-14T11:44:12;100884.13;;;41.81;28.86
69316;BME280;56445;43.552;5.034;2023-06-14T11:46:39;100868.34;;;41.80;28.61
69316;BME280;56445;43.552;5.034;2023-06-14T11:49:07;100877.59;;;41.84;28.59
69316;BME280;56445;43.552;5.034;2023-06-14T11:51:36;100894.00;;;42.00;28.78
69316;BME280;56445;43.552;5.034;2023-06-14T11:54:05;100891.16;;;42.04;28.71
69316;BME280;56445;43.552;5.034;2023-06-14T11:56:33;100873.56;;;42.16;28.38
69316;BME280;56445;43.552;5.034;2023-06-14T11:59:02;100865.94;;;42.13;28.62
69316;BME280;56445;43.552;5.034;2023-06-14T12:01:31;100885.03;;;42.09;28.56
69316;BME280;56445;43.552;5.034;2023-06-14T12:03:59;100877.78;;;42.04;28.45
69316;BME280;56445;43.552;5.034;2023-06-14T12:06:28;100859.78;;;42.18;28.43
69316;BME280;56445;43.552;5.034;2023-06-14T12:09:02;100879.63;;;42.49;28.24
69316;BME280;56445;43.552;5.034;2023-06-14T12:11:35;100857.50;;;42.36;28.21
69316;BME280;56445;43.552;5.034;2023-06-14T12:14:07;100867.22;;;42.66;28.44
69316;BME280;56445;43.552;5.034;2023-06-14T12:16:38;100867.72;;;42.85;28.34
69316;BME280;56445;43.552;5.034;2023-06-14T12:19:15;100867.59;;;42.68;28.29
69316;BME280;56445;43.552;5.034;2023-06-14T12:21:46;100843.66;;;42.69;28.24
69316;BME280;56445;43.552;5.034;2023-06-14T12:24:16;100849.88;;;42.88;28.03
69316;BME280;56445;43.552;5.034;2023-06-14T12:26:43;100841.53;;;43.01;28.22
69316;BME280;56445;43.552;5.034;2023-06-14T12:29:10;100862.34;;;43.17;28.23
69316;BME280;56445;43.552;5.034;2023-06-14T12:31:40;100856.44;;;43.32;28.41
69316;BME280;56445;43.552;5.034;2023-06-14T12:34:07;100858.19;;;43.46;28.39
69316;BME280;56445;43.552;5.034;2023-06-14T12:36:35;100846.97;;;43.58;28.01
69316;BME280;56445;43.552;5.034;2023-06-14T12:39:08;100837.09;;;43.67;28.07
69316;BME280;56445;43.552;5.034;2023-06-14T12:41:36;100836.44;;;43.79;27.98
69316;BME280;56445;43.552;5.034;2023-06-14T12:44:04;100843.88;;;43.93;27.88
69316;BME280;56445;43.552;5.034;2023-06-14T12:46:31;100819.22;;;43.86;27.79
69316;BME280;56445;43.552;5.034;2023-06-14T12:48:59;100811.34;;;43.94;28.14
69316;BME280;56445;43.552;5.034;2023-06-14T12:51:26;100833.22;;;43.97;28.13
69316;BME280;56445;43.552;5.034;2023-06-14T12:53:53;100808.50;;;43.94;28.07
69316;BME280;56445;43.552;5.034;2023-06-14T12:56:21;100845.19;;;43.88;28.12
69316;BME280;56445;43.552;5.034;2023-06-14T12:58:50;100830.59;;;43.66;27.86
69316;BME280;56445;43.552;5.034;2023-06-14T13:01:18;100825.06;;;43.39;28.17
69316;BME280;56445;43.552;5.034;2023-06-14T13:03:49;100811.53;;;43.23;27.69
69316;BME280;56445;43.552;5.034;2023-06-14T13:06:17;100830.94;;;43.48;27.74
69316;BME280;56445;43.552;5.034;2023-06-14T13:08:45;100818.28;;;43.53;27.50
69316;BME280;56445;43.552;5.034;2023-06-14T13:11:12;100812.72;;;43.26;27.71
69316;BME280;56445;43.552;5.034;2023-06-14T13:13:39;100816.25;;;43.10;27.65
69316;BME280;56445;43.552;5.034;2023-06-14T13:16:06;100830.81;;;43.12;27.99
69316;BME280;56445;43.552;5.034;2023-06-14T13:18:33;100804.47;;;42.88;27.49
69316;BME280;56445;43.552;5.034;2023-06-14T13:21:01;100835.19;;;42.93;27.63
69316;BME280;56445;43.552;5.034;2023-06-14T13:23:28;100812.75;;;42.75;27.95
69316;BME280;56445;43.552;5.034;2023-06-14T13:25:55;100815.75;;;42.91;27.77
69316;BME280;56445;43.552;5.034;2023-06-14T13:28:22;100821.88;;;43.13;27.51
69316;BME280;56445;43.552;5.034;2023-06-14T13:30:49;100829.81;;;43.22;27.71
69316;BME280;56445;43.552;5.034;2023-06-14T13:33:17;100827.53;;;43.13;27.51
69316;BME280;56445;43.552;5.034;2023-06-14T13:35:44;100811.63;;;42.96;27.56
69316;BME280;56445;43.552;5.034;2023-06-14T13:38:12;100790.81;;;42.79;27.66
69316;BME280;56445;43.552;5.034;2023-06-14T13:40:39;100812.47;;;42.93;27.60
69316;BME280;56445;43.552;5.034;2023-06-14T13:43:06;100816.66;;;42.85;27.40
69316;BME280;56445;43.552;5.034;2023-06-14T13:45:34;100820.78;;;42.80;27.52
69316;BME280;56445;43.552;5.034;2023-06-14T13:48:02;100816.09;;;42.70;27.37
69316;BME280;56445;43.552;5.034;2023-06-14T13:50:29;100791.72;;;42.49;27.75
69316;BME280;56445;43.552;5.034;2023-06-14T13:52:56;100820.34;;;42.58;27.74
69316;BME280;56445;43.552;5.034;2023-06-14T13:55:23;100805.16;;;42.45;27.35
69316;BME280;56445;43.552;5.034;2023-06-14T13:57:50;100805.28;;;42.34;27.65
69316;BME280;56445;43.552;5.034;2023-06-14T14:00:18;100791.66;;;42.25;27.46
69316;BME280;56445;43.552;5.034;2023-06-14T14:02:49;100803.09;;;42.18;27.62
69316;BME280;56445;43.552;5.034;2023-06-14T14:05:25;100829.31;;;42.26;27.25
69316;BME280;56445;43.552;5.034;2023-06-14T14:08:16;100800.47;;;42.04;27.39
69316;BME280;56445;43.552;5.034;2023-06-14T14:11:12;100814.53;;;42.11;27.15
69316;BME280;56445;43.552;5.034;2023-06-14T14:14:00;100814.63;;;42.04;27.47
69316;BME280;56445;43.552;5.034;2023-06-14T14:16:30;100806.50;;;42.06;27.08
69316;BME280;56445;43.552;5.034;2023-06-14T14:18:59;100785.88;;;42.05;27.36
69316;BME280;56445;43.552;5.034;2023-06-14T14:21:29;100768.50;;;41.99;27.35
69316;BME280;56445;43.552;5.034;2023-06-14T14:24:02;100785.97;;;42.25;27.21
69316;BME280;56445;43.552;5.034;2023-06-14T14:26:30;100785.06;;;42.32;27.00
69316;BME280;56445;43.552;5.034;2023-06-14T14:29:05;100791.06;;;42.37;27.26
69316;BME280;56445;43.552;5.034;2023-06-14T14:31:46;100780.47;;;42.42;27.04
69316;BME280;56445;43.552;5.034;2023-06-14T14:34:13;100769.25;;;42.34;27.06
69316;BME280;56445;43.552;5.034;2023-06-14T14:36:40;100747.97;;;42.23;27.22
69316;BME280;56445;43.552;5.034;2023-06-14T14:39:09;100758.38;;;42.29;27.00
69316;BME280;56445;43.552;5.034;2023-06-14T14:41:36;100780.88;;;42.40;27.16
69316;BME280;56445;43.552;5.034;2023-06-14T14:44:08;100775.22;;;42.40;26.96
69316;BME280;56445;43.552;5.034;2023-06-14T14:46:35;100751.09;;;42.28;27.20
69316;BME280;56445;43.552;5.034;2023-06-14T14:49:03;100778.38;;;42.46;27.13
69316;BME280;56445;43.552;5.034;2023-06-14T14:51:30;100770.41;;;42.37;27.06
69316;BME280;56445;43.552;5.034;2023-06-14T14:53:57;100783.22;;;42.49;26.99
69316;BME280;56445;43.552;5.034;2023-06-14T14:56:26;100777.53;;;42.49;26.71
69316;BME280;56445;43.552;5.034;2023-06-14T14:58:55;100779.13;;;42.50;26.89
69316;BME280;56445;43.552;5.034;2023-06-14T15:01:26;100761.47;;;42.38;26.76
69316;BME280;56445;43.552;5.034;2023-06-14T15:03:57;100781.19;;;42.49;26.94
69316;BME280;56445;43.552;5.034;2023-06-14T15:06:26;100785.25;;;42.48;27.14
69316;BME280;56445;43.552;5.034;2023-06-14T15:08:53;100796.16;;;42.50;26.80
69316;BME280;56445;43.552;5.034;2023-06-14T15:11:21;100805.03;;;42.52;26.91
69316;BME280;56445;43.552;5.034;2023-06-14T15:13:48;100783.22;;;42.49;27.00
69316;BME280;56445;43.552;5.034;2023-06-14T15:16:16;100786.44;;;42.51;26.94
69316;BME280;56445;43.552;5.034;2023-06-14T15:18:43;100790.47;;;42.50;26.74
69316;BME280;56445;43.552;5.034;2023-06-14T15:21:12;100791.72;;;42.49;26.71
69316;BME280;56445;43.552;5.034;2023-06-14T15:23:42;100790.09;;;42.48;26.85
69316;BME280;56445;43.552;5.034;2023-06-14T15:26:10;100763.22;;;42.32;26.49
69316;BME280;56445;43.552;5.034;2023-06-14T15:28:37;100780.00;;;42.47;26.60
69316;BME280;56445;43.552;5.034;2023-06-14T15:31:06;100783.28;;;42.45;26.58
69316;BME280;56445;43.552;5.034;2023-06-14T15:34:01;100759.88;;;42.37;26.45
69316;BME280;56445;43.552;5.034;2023-06-14T15:37:15;100750.28;;;42.28;26.28
69316;BME280;56445;43.552;5.034;2023-06-14T15:40:28;100777.63;;;42.42;26.71
69316;BME280;56445;43.552;5.034;2023-06-14T15:43:34;100779.66;;;42.41;26.68
69316;BME280;56445;43.552;5.034;2023-06-14T15:50:01;100760.84;;;42.27;26.45
69316;BME280;56445;43.552;5.034;2023-06-14T15:52:37;100780.22;;;42.32;26.49
69316;BME280;56445;43.552;5.034;2023-06-14T15:55:07;100787.47;;;42.33;26.36
69316;BME280;56445;43.552;5.034;2023-06-14T15:57:44;100774.28;;;42.23;26.09
69316;BME280;56445;43.552;5.034;2023-06-14T16:00:57;100779.56;;;42.21;26.43
69316;BME280;56445;43.552;5.034;2023-06-14T16:03:47;100818.94;;;42.43;25.99
69316;BME280;56445;43.552;5.034;2023-06-14T16:14:07;100852.06;;;41.88;25.91
69316;BME280;56445;43.552;5.034;2023-06-14T16:16:54;100872.47;;;41.72;25.92
69316;BME280;56445;43.552;5.034;2023-06-14T16:23:33;100857.41;;;40.95;25.75
69316;BME280;56445;43.552;5.034;2023-06-14T16:27:06;100857.63;;;40.63;25.61
69316;BME280;56445;43.552;5.034;2023-06-14T16:30:42;100893.69;;;40.44;25.54
69316;BME280;56445;43.552;5.034;2023-06-14T16:33:47;100883.38;;;40.05;25.73
69316;BME280;56445;43.552;5.034;2023-06-14T16:36:53;100875.34;;;39.86;25.93
69316;BME280;56445;43.552;5.034;2023-06-14T16:39:52;100901.97;;;39.92;25.81
69316;BME280;56445;43.552;5.034;2023-06-14T16:42:36;100915.69;;;39.90;25.83
69316;BME280;56445;43.552;5.034;2023-06-14T16:45:43;100931.03;;;39.82;25.83
69316;BME280;56445;43.552;5.034;2023-06-14T16:48:54;100918.94;;;39.63;25.72
69316;BME280;56445;43.552;5.034;2023-06-14T18:34:13;101041.34;;;38.69;25.82
69316;BME280;56445;43.552;5.034;2023-06-14T19:20:52;101025.06;;;38.44;26.15
69316;BME280;56445;43.552;5.034;2023-06-14T19:23:21;101035.19;;;38.49;26.11
69316;BME280;56445;43.552;5.034;2023-06-14T19:25:50;101066.69;;;38.65;26.16
69316;BME280;56445;43.552;5.034;2023-06-14T19:28:20;101066.63;;;38.55;26.31
69316;BME280;56445;43.552;5.034;2023-06-14T19:30:55;101030.41;;;38.53;25.92
69316;BME280;56445;43.552;5.034;2023-06-14T19:33:23;101037.56;;;38.51;26.15
69316;BME280;56445;43.552;5.034;2023-06-14T19:35:53;101086.81;;;38.64;26.25
69316;BME280;56445;43.552;5.034;2023-06-14T19:38:26;101087.59;;;38.61;26.00
69316;BME280;56445;43.552;5.034;2023-06-14T19:41:03;101039.56;;;38.46;26.25
69316;BME280;56445;43.552;5.034;2023-06-14T19:43:36;101088.31;;;38.51;26.08
69316;BME280;56445;43.552;5.034;2023-06-14T19:46:12;101097.94;;;38.42;26.24
69316;BME280;56445;43.552;5.034;2023-06-14T19:52:01;101088.00;;;38.04;26.00
69316;BME280;56445;43.552;5.034;2023-06-14T19:54:34;101067.50;;;38.07;26.00
69316;BME280;56445;43.552;5.034;2023-06-14T19:57:12;101082.03;;;38.13;26.02
69316;BME280;56445;43.552;5.034;2023-06-14T19:59:49;101138.00;;;38.14;26.32
69316;BME280;56445;43.552;5.034;2023-06-14T20:02:22;101082.34;;;38.00;26.39
69316;BME280;56445;43.552;5.034;2023-06-14T20:05:00;101080.69;;;37.99;26.18
69316;BME280;56445;43.552;5.034;2023-06-14T20:07:35;101127.81;;;38.02;26.47
69316;BME280;56445;43.552;5.034;2023-06-14T20:10:07;101086.69;;;37.90;26.27
69316;BME280;56445;43.552;5.034;2023-06-14T20:13:02;101112.41;;;37.89;25.82
69316;BME280;56445;43.552;5.034;2023-06-14T20:15:42;101114.91;;;37.98;26.21
69316;BME280;56445;43.552;5.034;2023-06-14T20:18:20;101139.84;;;37.96;26.49
69316;BME280;56445;43.552;5.034;2023-06-14T20:20:52;101122.88;;;37.88;26.18
69316;BME280;56445;43.552;5.034;2023-06-14T20:23:27;101126.88;;;37.84;25.89
69316;BME280;56445;43.552;5.034;2023-06-14T20:25:57;101129.22;;;37.82;26.20
69316;BME280;56445;43.552;5.034;2023-06-14T20:28:24;101136.91;;;37.85;26.38
69316;BME280;56445;43.552;5.034;2023-06-14T20:30:52;101152.59;;;37.82;26.07
69316;BME280;56445;43.552;5.034;2023-06-14T20:33:21;101154.16;;;37.80;26.08
69316;BME280;56445;43.552;5.034;2023-06-14T20:35:49;101131.13;;;37.67;26.29
69316;BME280;56445;43.552;5.034;2023-06-14T20:38:16;101144.84;;;37.76;26.25
69316;BME280;56445;43.552;5.034;2023-06-14T20:40:47;101132.22;;;37.59;25.97
69316;BME280;56445;43.552;5.034;2023-06-14T20:46:17;101150.34;;;37.61;26.16
69316;BME280;56445;43.552;5.034;2023-06-14T20:48:44;101145.41;;;37.51;26.18
69316;BME280;56445;43.552;5.034;2023-06-14T20:51:13;101145.72;;;37.46;26.28
69316;BME280;56445;43.552;5.034;2023-06-14T20:53:40;101163.13;;;37.55;26.25
69316;BME280;56445;43.552;5.034;2023-06-14T20:56:07;101153.31;;;37.42;26.29
69316;BME280;56445;43.552;5.034;2023-06-14T20:58:36;101164.25;;;37.47;26.17
69316;BME280;56445;43.552;5.034;2023-06-14T21:01:04;101143.13;;;37.30;26.27
69316;BME280;56445;43.552;5.034;2023-06-14T21:03:31;101142.72;;;37.28;25.99
69316;BME280;56445;43.552;5.034;2023-06-14T21:05:58;101151.22;;;37.31;26.33
69316;BME280;56445;43.552;5.034;2023-06-14T21:08:26;101147.06;;;37.22;26.41
69316;BME280;56445;43.552;5.034;2023-06-14T21:10:53;101151.91;;;37.21;26.57
69316;BME280;56445;43.552;5.034;2023-06-14T21:13:23;101145.38;;;37.14;26.54
